Shade, Ohio
Current Conditions -  °F | °C
As of 6:15 PM on Wednesday 17 Dec 2014 (Local Time) from KUNI Reporting Station
Overcast Overcast  
Wind Chill: 23°   Ceiling: 2800
Heat Index: 32°   Visibility: 10mi
Dew Point: 24°   Wind: 12mph
Humidity: 71%   Direction: 280°W
Pressure: 30.2"   Gusts: NA
Location:  39.23°N, 82.04°W
Report Text: KUNI 172315Z AUTO 28010KT 10SM OVC028 00/M05 A3020 RMK AO2 T00011046
Loading
Personal Weather Stations






























Interactive Weather Map New forecast layout! Learn more

10-Day Weather Forecast

Advertisements
Track Severe Weather on mobile